Pagrindinis puslapis
METAR-TAF:

METAR-TAF

Oro uostai :

Rørvik, Norvegija

platuma: 64-50N, ilguma: 011-09E, Aukštis: 4 m

Dabartinis oras

Ataskaita buvo paskelbta 30 minutes, ne 10:20 UTC
Vėjas 7 kt iš Šiaurės
Temperatūra 1°C
Drėgmė 69%
Slėgis 985 hPa
Matomumas 10 km arba daugiau
Mažai debesys ne aukštis 1500 ft, aukštai iškilę kamuoliniai debesys.
Išsisklaidę debesys ne aukštis 3500 ft
Liūtis kaimynystėje

METAR: ENRM 091020Z 36007KT 9999 VCSH FEW015TCU SCT035 01/M04 Q0985

Laikas: 11:50 (10:50 UTC)

Prognozė

Ataskaita buvo paskelbta 2 valandos ir 50 minutes, ne 08:00 UTC
Prognozė galioja nuo 09 metu 09 UTC su 09 metu 14 UTC
Vėjas 7 kt iš Šiaurės
Matomumas 10 km arba daugiau
Mažai debesys ne aukštis 1200 ft, aukštai iškilę kamuoliniai debesys.
Išsisklaidę debesys ne aukštis 2000 ft
Laikinai
nuo 09 metu 09 UTC su 09 metu 14 UTC
Vėjas 15 kt iš Šiaurės su gūsio iki 25 kt
Matomumas: 1200 m
ne aukštis 800 ft
sniegas

TAF: ENRM 090800Z 0909/0914 36007KT 9999 FEW012TCU SCT020 TEMPO 0909/0914 35015G25KT 1200 SHSN VV008

Orai ataskaitas ir orų prognozės (METAR, TAF).

turimą stotys yra geltonos ir raudonos taškus žemėlapyje.

Perkelti pele per norėdami pamatyti stoties vardą.

Tada spustelėkite, norėdami matyti oro stebėjimo ir prognozės.

Norėdami pakeisti žemėlapį: spustelėkite ant žalios mygtukų su juodo kryžiaus žemyn,; žalią mygtuką su brūkšneliu, jei norite nutolinti; arba žalių rodyklių gretimoms žemėlapius.


METAR-TAF: